createdAt,value
2018-12-22T00:02:09.545Z,11.30
2018-12-22T00:04:43.080Z,11.20
2018-12-22T00:07:19.656Z,11.30
2018-12-22T00:09:52.733Z,11.30
2018-12-22T00:15:32.853Z,11.30
2018-12-22T00:18:08.531Z,11.30
2018-12-22T00:20:43.638Z,11.30
2018-12-22T00:26:11.661Z,11.40
2018-12-22T00:31:28.599Z,11.40
2018-12-22T00:34:04.428Z,11.30
2018-12-22T00:36:43.579Z,11.30
2018-12-22T00:39:18.954Z,11.40
2018-12-22T00:41:53.164Z,11.40
2018-12-22T00:44:26.831Z,11.40
2018-12-22T00:47:07.761Z,11.40
2018-12-22T00:52:21.913Z,11.40
2018-12-22T00:55:04.798Z,11.30
2018-12-22T01:00:17.951Z,11.30
2018-12-22T01:02:58.704Z,11.40
2018-12-22T01:06:01.850Z,11.30
2018-12-22T01:08:37.372Z,11.30
2018-12-22T01:11:11.748Z,11.30
2018-12-22T01:13:44.942Z,11.30
2018-12-22T01:16:17.625Z,11.20
2018-12-22T01:18:47.818Z,11.20
2018-12-22T01:21:23.201Z,11.10
2018-12-22T01:23:55.907Z,11.10
2018-12-22T01:26:25.790Z,11.10
2018-12-22T01:29:00.583Z,11.10
2018-12-22T01:31:33.288Z,11.10
2018-12-22T01:34:12.056Z,11.10
2018-12-22T01:36:43.522Z,11.10
2018-12-22T01:39:15.410Z,11.10
2018-12-22T01:41:54.979Z,11.10
2018-12-22T01:44:27.979Z,11.10
2018-12-22T01:47:00.413Z,11.10
2018-12-22T01:49:36.042Z,11.10
2018-12-22T01:52:23.775Z,11.10
2018-12-22T01:55:00.157Z,11.10
2018-12-22T02:00:30.401Z,11.10
2018-12-22T02:03:08.514Z,11.10
2018-12-22T02:05:40.975Z,11.10
2018-12-22T02:08:11.149Z,11.10
2018-12-22T02:10:42.764Z,11.10
2018-12-22T02:13:13.604Z,11.10
2018-12-22T02:18:42.296Z,11.10
2018-12-22T02:21:15.157Z,11.10
2018-12-22T02:23:57.361Z,11.10
2018-12-22T02:26:35.000Z,11.10
2018-12-22T02:29:18.962Z,11.10
2018-12-22T02:31:58.975Z,11.10
2018-12-22T02:37:23.923Z,11.00
2018-12-22T02:39:59.489Z,11.10
2018-12-22T02:42:38.122Z,11.10
2018-12-22T02:45:15.082Z,11.10
2018-12-22T02:48:18.253Z,11.10
2018-12-22T02:50:54.178Z,11.10
2018-12-22T02:53:52.312Z,11.00
2018-12-22T02:56:47.108Z,11.00
2018-12-22T03:03:08.948Z,11.00
2018-12-22T03:05:44.848Z,10.90
2018-12-22T03:08:53.369Z,10.90
2018-12-22T03:11:26.416Z,10.90
2018-12-22T03:14:04.000Z,10.90
2018-12-22T03:16:33.118Z,11.00
2018-12-22T03:19:06.738Z,11.00
2018-12-22T03:21:43.032Z,11.10
2018-12-22T03:24:12.340Z,11.10
2018-12-22T03:26:44.149Z,11.10
2018-12-22T03:29:15.767Z,11.20
2018-12-22T03:31:50.537Z,11.10
2018-12-22T03:34:23.890Z,11.10
2018-12-22T03:36:58.918Z,11.10
2018-12-22T03:39:29.070Z,11.10
2018-12-22T03:41:59.832Z,11.10
2018-12-22T03:44:30.349Z,11.10
2018-12-22T03:47:01.293Z,11.10
2018-12-22T03:49:31.960Z,11.00
2018-12-22T03:52:02.023Z,11.00
2018-12-22T03:54:31.677Z,11.10
2018-12-22T03:57:02.843Z,11.10
2018-12-22T04:02:08.917Z,11.00
2018-12-22T04:04:38.181Z,11.00
2018-12-22T04:07:07.449Z,11.00
2018-12-22T04:09:37.338Z,11.00
2018-12-22T04:12:09.867Z,11.00
2018-12-22T04:14:43.732Z,10.90
2018-12-22T04:17:16.023Z,10.90
2018-12-22T04:19:46.776Z,10.90
2018-12-22T04:22:16.006Z,10.90
2018-12-22T04:24:47.259Z,11.00
2018-12-22T04:27:17.384Z,11.00
2018-12-22T04:29:49.761Z,11.00
2018-12-22T04:32:19.302Z,11.00
2018-12-22T04:34:49.010Z,11.00
2018-12-22T04:37:18.945Z,11.10
2018-12-22T04:39:49.186Z,11.00
2018-12-22T04:42:19.675Z,11.10
2018-12-22T04:44:50.899Z,11.10
2018-12-22T04:47:21.623Z,11.00
2018-12-22T04:49:50.709Z,11.00
2018-12-22T04:52:24.876Z,11.00
2018-12-22T04:54:55.290Z,11.00
2018-12-22T04:57:24.463Z,11.00
2018-12-22T04:59:58.434Z,11.10
2018-12-22T05:02:29.280Z,11.10
2018-12-22T05:05:00.171Z,11.10
2018-12-22T05:07:31.082Z,11.10
2018-12-22T05:10:04.298Z,11.10
2018-12-22T05:12:36.820Z,11.10
2018-12-22T05:15:08.697Z,11.10
2018-12-22T05:17:39.006Z,11.00
2018-12-22T05:20:11.405Z,11.00
2018-12-22T05:22:41.866Z,11.00
2018-12-22T05:25:12.268Z,11.00
2018-12-22T05:27:42.246Z,11.00
2018-12-22T05:30:11.352Z,11.10
2018-12-22T05:32:40.622Z,11.10
2018-12-22T05:35:11.480Z,11.10
2018-12-22T05:37:40.832Z,11.10
2018-12-22T05:40:12.933Z,11.10
2018-12-22T05:42:43.340Z,11.10
2018-12-22T05:45:14.167Z,11.00
2018-12-22T05:47:44.133Z,11.10
2018-12-22T05:50:15.318Z,11.10
2018-12-22T05:52:44.578Z,11.10
2018-12-22T05:55:15.604Z,11.20
2018-12-22T05:57:45.716Z,11.20
2018-12-22T06:00:15.591Z,11.30
2018-12-22T06:02:45.025Z,11.30
2018-12-22T06:05:17.580Z,11.30
2018-12-22T06:07:51.799Z,11.30
2018-12-22T06:10:24.897Z,11.40
2018-12-22T06:12:59.944Z,11.50
2018-12-22T06:15:51.530Z,11.60
2018-12-22T06:18:37.924Z,11.60
2018-12-22T06:21:18.695Z,11.60
2018-12-22T06:24:21.169Z,11.70
2018-12-22T06:29:58.542Z,11.70
2018-12-22T06:32:38.038Z,11.70
2018-12-22T06:37:54.959Z,11.70
2018-12-22T06:40:24.075Z,11.60
2018-12-22T06:46:17.007Z,11.50
2018-12-22T06:48:51.912Z,11.50
2018-12-22T06:51:22.139Z,11.50
2018-12-22T06:53:52.085Z,11.50
2018-12-22T06:56:21.162Z,11.50
2018-12-22T06:58:50.245Z,11.50
2018-12-22T07:01:20.320Z,11.50
2018-12-22T07:03:49.550Z,11.50
2018-12-22T07:06:18.932Z,11.50
2018-12-22T07:08:48.394Z,11.50
2018-12-22T07:11:17.605Z,11.50
2018-12-22T07:13:48.352Z,11.40
2018-12-22T07:16:18.427Z,11.40
2018-12-22T07:18:48.882Z,11.40
2018-12-22T07:21:18.158Z,11.30
2018-12-22T07:23:48.224Z,11.30
2018-12-22T07:26:25.102Z,11.30
2018-12-22T07:29:00.624Z,11.30
2018-12-22T07:31:36.587Z,11.40
2018-12-22T07:34:11.362Z,11.40
2018-12-22T07:36:42.728Z,11.40
2018-12-22T07:39:13.262Z,11.40
2018-12-22T07:41:50.342Z,11.40
2018-12-22T07:44:26.049Z,11.40
2018-12-22T07:47:23.199Z,11.30
2018-12-22T07:51:12.321Z,11.30
2018-12-22T07:53:42.602Z,11.20
2018-12-22T08:12:40.804Z,11.10
2018-12-22T08:15:11.246Z,10.90
2018-12-22T08:17:40.289Z,10.70
2018-12-22T08:20:11.141Z,10.80
2018-12-22T08:22:40.767Z,10.80
2018-12-22T08:25:11.937Z,10.80
2018-12-22T08:27:40.940Z,10.70
2018-12-22T08:30:10.918Z,10.80
2018-12-22T08:32:40.512Z,10.80
2018-12-22T08:35:09.551Z,10.80
2018-12-22T08:37:38.618Z,10.80
2018-12-22T08:40:09.652Z,10.80
2018-12-22T08:42:38.782Z,10.80
2018-12-22T08:45:09.046Z,10.90
2018-12-22T08:47:38.058Z,10.90
2018-12-22T08:50:09.777Z,10.90
2018-12-22T08:52:40.143Z,11.00
2018-12-22T08:55:16.110Z,11.00
2018-12-22T08:57:47.229Z,11.00
2018-12-22T09:00:16.392Z,11.10
2018-12-22T09:02:47.740Z,11.10
2018-12-22T09:05:18.284Z,11.10
2018-12-22T09:07:51.610Z,11.10
2018-12-22T09:10:21.860Z,11.10
2018-12-22T09:12:50.954Z,11.00
2018-12-22T09:15:29.360Z,11.00
2018-12-22T09:17:58.380Z,11.00
2018-12-22T09:20:27.462Z,11.00
2018-12-22T09:22:56.442Z,11.00
2018-12-22T09:25:25.422Z,11.00
2018-12-22T09:27:57.556Z,11.00
2018-12-22T09:30:31.084Z,11.00
2018-12-22T09:33:13.648Z,10.90
2018-12-22T09:35:46.462Z,10.90
2018-12-22T09:38:19.445Z,10.80
2018-12-22T09:41:03.383Z,10.80
2018-12-22T09:43:47.979Z,10.80
2018-12-22T09:46:17.181Z,10.80
2018-12-22T09:51:46.530Z,10.80
2018-12-22T09:54:18.627Z,10.80
2018-12-22T09:56:54.236Z,10.70
2018-12-22T09:59:23.339Z,10.70
2018-12-22T10:01:54.057Z,10.70
2018-12-22T10:04:44.032Z,10.70
2018-12-22T10:07:14.272Z,10.70
2018-12-22T10:09:43.041Z,10.60
2018-12-22T10:12:11.854Z,10.70
2018-12-22T10:14:40.684Z,10.70
2018-12-22T10:17:09.526Z,10.70
2018-12-22T10:19:38.311Z,10.70
2018-12-22T10:22:07.141Z,10.70
2018-12-22T10:24:36.098Z,10.70
2018-12-22T10:27:13.652Z,10.70
2018-12-22T10:29:42.456Z,10.70
2018-12-22T10:32:11.455Z,10.80
2018-12-22T10:34:40.959Z,10.80
2018-12-22T10:37:10.642Z,10.80
2018-12-22T10:39:39.474Z,10.80
2018-12-22T10:42:08.402Z,10.90
2018-12-22T10:44:37.515Z,10.90
2018-12-22T10:47:06.619Z,10.90
2018-12-22T10:49:38.979Z,10.90
2018-12-22T10:52:07.953Z,10.90
2018-12-22T10:54:36.969Z,11.00
2018-12-22T10:57:05.900Z,11.00
2018-12-22T10:59:35.056Z,11.00
2018-12-22T11:02:04.929Z,11.00
2018-12-22T11:04:36.072Z,11.10
2018-12-22T11:07:05.104Z,11.10
2018-12-22T11:09:34.207Z,11.10
2018-12-22T11:12:03.448Z,11.00
2018-12-22T11:14:32.500Z,11.10
2018-12-22T11:17:04.829Z,11.10
2018-12-22T11:19:44.724Z,11.10
2018-12-22T11:34:38.664Z,11.10
2018-12-22T11:48:00.285Z,11.00
2018-12-22T11:50:45.370Z,11.00
2018-12-22T11:53:18.227Z,10.90
2018-12-22T11:58:42.784Z,10.70
2018-12-22T12:01:11.684Z,10.30
2018-12-22T12:03:40.780Z,10.20
2018-12-22T12:06:09.871Z,10.10
2018-12-22T12:08:38.852Z,10.10
2018-12-22T12:11:07.978Z,10.10
2018-12-22T12:13:45.200Z,10.10
2018-12-22T12:16:25.686Z,10.20
2018-12-22T12:19:03.116Z,10.20
2018-12-22T12:21:32.239Z,10.20
2018-12-22T12:24:02.502Z,10.20
2018-12-22T12:26:31.457Z,10.10
2018-12-22T12:32:00.128Z,10.20
2018-12-22T12:34:36.054Z,10.20
2018-12-22T12:37:11.221Z,10.10
2018-12-22T12:39:43.158Z,10.20
2018-12-22T12:42:13.587Z,10.20
2018-12-22T12:47:30.423Z,10.20
2018-12-22T12:49:59.665Z,10.20
2018-12-22T12:53:17.774Z,10.20
2018-12-22T13:12:20.082Z,10.30
2018-12-22T13:14:51.893Z,10.50
2018-12-22T13:17:22.503Z,10.50
2018-12-22T13:19:53.392Z,10.50
2018-12-22T13:22:22.192Z,10.50
2018-12-22T13:24:51.007Z,10.50
2018-12-22T13:27:19.706Z,10.50
2018-12-22T13:29:51.048Z,10.50
2018-12-22T13:32:20.205Z,10.60
2018-12-22T13:35:02.786Z,10.60
2018-12-22T13:37:31.821Z,10.60
2018-12-22T13:40:12.583Z,10.60
2018-12-22T13:42:58.084Z,10.60
2018-12-22T13:45:26.841Z,10.60
2018-12-22T13:47:55.992Z,10.60
2018-12-22T13:50:25.183Z,10.70
2018-12-22T13:52:55.076Z,10.70
2018-12-22T13:55:33.506Z,10.70
2018-12-22T13:58:20.411Z,10.70
2018-12-22T14:00:51.210Z,10.70
2018-12-22T14:03:25.447Z,10.70
2018-12-22T14:06:02.207Z,10.90
2018-12-22T14:11:29.633Z,11.00
2018-12-22T14:14:05.267Z,11.00
2018-12-22T14:16:50.336Z,11.10
2018-12-22T14:19:22.575Z,11.10
2018-12-22T14:41:58.793Z,10.90
2018-12-22T16:33:42.501Z,9.70
